Time;durP1;ratioP1;P1;durP2;ratioP2;P2;SDS_P1;SDS_P2;PMS_P1;PMS_P2;Temp;Humidity;BMP_temperature;BMP_pressure;BME280_temperature;BME280_humidity;BME280_pressure;Samples;Min_cycle;Max_cycle;Signal;HPM_P1;HPM_P2
2024/03/07 00:00:18;;;;;;;15.90;12.30;;;;;;;8.80;100.00;92793.31;5066677;28;20494;-73
2024/03/07 00:02:45;;;;;;;15.88;12.38;;;;;;;8.71;100.00;92794.53;5063545;28;20052;-73
2024/03/07 00:05:13;;;;;;;15.73;12.18;;;;;;;8.53;100.00;92771.22;5066095;28;20052;-73
2024/03/07 00:07:40;;;;;;;16.73;11.43;;;;;;;8.56;100.00;92793.06;5062782;28;20537;-73
2024/03/07 00:10:08;;;;;;;14.07;11.18;;;;;;;8.45;100.00;92789.38;5064157;28;20259;-73
2024/03/07 00:12:40;;;;;;;14.38;11.20;;;;;;;8.46;100.00;92792.72;5063499;28;20052;-73
2024/03/07 00:15:08;;;;;;;16.38;12.05;;;;;;;8.33;100.00;92793.59;5065713;28;20780;-73
2024/03/07 00:17:35;;;;;;;13.68;10.55;;;;;;;8.26;100.00;92788.50;5065254;28;20806;-73
2024/03/07 00:20:04;;;;;;;15.23;11.32;;;;;;;8.26;100.00;92794.41;5061946;28;20044;-73
2024/03/07 00:22:31;;;;;;;14.15;10.50;;;;;;;8.00;100.00;92755.19;5067042;28;20040;-73
2024/03/07 00:24:59;;;;;;;15.18;10.65;;;;;;;8.16;100.00;92784.59;5066452;28;20040;-72
2024/03/07 00:27:27;;;;;;;15.63;11.63;;;;;;;8.08;100.00;92786.59;5066793;28;20149;-73
2024/03/07 00:29:56;;;;;;;15.00;10.23;;;;;;;8.04;100.00;92783.69;5061494;28;20461;-73
2024/03/07 00:32:23;;;;;;;12.77;9.35;;;;;;;7.96;100.00;92779.56;5066730;28;20045;-73
2024/03/07 00:34:51;;;;;;;12.02;8.75;;;;;;;7.95;100.00;92780.56;5063355;28;20744;-73
2024/03/07 00:37:18;;;;;;;10.77;7.50;;;;;;;7.77;100.00;92781.22;5065006;28;20122;-73
2024/03/07 00:39:45;;;;;;;10.55;6.95;;;;;;;7.73;100.00;92767.31;5065227;28;20784;-72
2024/03/07 00:42:11;;;;;;;8.50;6.68;;;;;;;7.67;100.00;92785.97;5061423;28;20051;-73
2024/03/07 00:44:38;;;;;;;8.63;6.50;;;;;;;7.64;100.00;92781.28;5066294;28;20164;-73
2024/03/07 00:47:07;;;;;;;8.00;6.35;;;;;;;7.51;100.00;92772.69;5066347;28;20048;-73
2024/03/07 00:49:34;;;;;;;8.30;5.93;;;;;;;7.49;100.00;92778.00;5062968;28;20059;-73
2024/03/07 00:52:01;;;;;;;7.40;5.68;;;;;;;7.42;100.00;92771.31;5065470;28;20044;-73
2024/03/07 00:54:28;;;;;;;8.55;6.13;;;;;;;7.20;100.00;92763.91;5066221;28;20052;-74
2024/03/07 00:56:56;;;;;;;7.53;5.32;;;;;;;7.27;100.00;92766.44;5063925;28;20417;-74
2024/03/07 00:59:23;;;;;;;6.70;5.47;;;;;;;7.14;100.00;92755.28;5066457;28;20044;-75
2024/03/07 01:01:50;;;;;;;9.15;6.13;;;;;;;7.16;100.00;92763.50;5065362;28;20498;-74
2024/03/07 01:04:18;;;;;;;8.88;6.15;;;;;;;7.08;100.00;92750.94;5060686;28;20048;-74
2024/03/07 01:06:45;;;;;;;8.23;5.80;;;;;;;7.16;100.00;92752.50;5066200;28;20046;-74
2024/03/07 01:09:16;;;;;;;7.80;5.78;;;;;;;7.02;100.00;92749.19;5064785;28;20436;-74
2024/03/07 01:11:44;;;;;;;7.97;5.25;;;;;;;7.18;100.00;92755.66;5064833;28;20064;-74
2024/03/07 01:14:11;;;;;;;6.75;5.10;;;;;;;7.27;100.00;92758.78;5059387;28;20052;-75
2024/03/07 01:16:38;;;;;;;6.88;5.00;;;;;;;7.20;100.00;92749.38;5066085;28;20418;-74
2024/03/07 01:19:06;;;;;;;6.68;5.10;;;;;;;7.13;100.00;92750.38;5061067;28;20056;-74
2024/03/07 01:21:35;;;;;;;4.82;3.72;;;;;;;6.99;100.00;92747.03;5065837;28;20059;-74
2024/03/07 01:24:03;;;;;;;6.63;4.78;;;;;;;6.97;100.00;92736.22;5060536;28;20052;-74
2024/03/07 01:26:30;;;;;;;6.32;4.40;;;;;;;7.03;100.00;92740.56;5063283;28;20044;-74
2024/03/07 01:28:58;;;;;;;6.78;4.20;;;;;;;6.98;100.00;92756.47;5065611;28;20395;-74
2024/03/07 01:31:25;;;;;;;4.82;3.35;;;;;;;6.94;100.00;92756.06;5063134;28;20055;-74
2024/03/07 01:33:52;;;;;;;4.82;3.08;;;;;;;6.94;100.00;92775.72;5065612;28;20045;-74
2024/03/07 01:36:20;;;;;;;2.92;2.13;;;;;;;6.93;100.00;92781.81;5062331;28;20350;-74
2024/03/07 01:38:48;;;;;;;3.70;2.60;;;;;;;7.01;100.00;92793.59;5061428;28;20490;-74
2024/03/07 01:41:15;;;;;;;3.33;2.17;;;;;;;6.92;100.00;92796.34;5065721;28;20413;-74
2024/03/07 01:43:42;;;;;;;3.05;1.95;;;;;;;6.89;100.00;92801.06;5063376;28;20524;-74
2024/03/07 01:46:11;;;;;;;2.53;1.80;;;;;;;6.77;100.00;92800.88;5062565;28;20292;-74
2024/03/07 01:48:40;;;;;;;2.70;1.70;;;;;;;6.75;100.00;92790.84;5062650;28;20048;-73
2024/03/07 01:51:08;;;;;;;2.63;1.48;;;;;;;6.71;100.00;92791.44;5065557;28;20589;-73
2024/03/07 01:53:35;;;;;;;2.40;1.60;;;;;;;6.52;100.00;92781.00;5067646;28;20155;-73
2024/03/07 01:56:05;;;;;;;3.30;1.60;;;;;;;6.39;100.00;92757.06;5069393;28;20048;-72
2024/03/07 01:58:32;;;;;;;2.20;1.30;;;;;;;6.39;100.00;92766.50;5067020;28;20150;-72
2024/03/07 02:00:59;;;;;;;2.45;1.50;;;;;;;6.32;100.00;92766.47;5069157;28;20057;-73
2024/03/07 02:03:26;;;;;;;2.70;1.60;;;;;;;6.35;100.00;92758.41;5068898;28;20491;-73
2024/03/07 02:05:53;;;;;;;3.10;1.55;;;;;;;6.30;100.00;92760.78;5067414;28;20490;-72
2024/03/07 02:08:20;;;;;;;2.70;1.30;;;;;;;6.27;100.00;92750.97;5064518;28;20413;-72
2024/03/07 02:10:48;;;;;;;2.05;1.15;;;;;;;6.18;100.00;92757.22;5068994;28;20494;-72
2024/03/07 02:13:17;;;;;;;2.30;1.40;;;;;;;6.15;100.00;92759.19;5066245;28;20052;-72
2024/03/07 02:15:44;;;;;;;2.42;1.27;;;;;;;5.95;100.00;92763.41;5067642;28;20049;-71
2024/03/07 02:18:11;;;;;;;1.77;1.13;;;;;;;6.09;100.00;92766.81;5068726;28;20135;-72
2024/03/07 02:20:38;;;;;;;2.05;1.17;;;;;;;6.08;100.00;92767.81;5066368;28;20074;-72
2024/03/07 02:23:07;;;;;;;2.65;1.50;;;;;;;6.26;100.00;92775.66;5065553;28;20517;-72
2024/03/07 02:25:37;;;;;;;2.08;1.40;;;;;;;6.31;100.00;92774.31;5065953;28;20059;-72
2024/03/07 02:28:05;;;;;;;2.08;1.20;;;;;;;6.24;100.00;92770.00;5068662;28;20074;-72
2024/03/07 02:30:32;;;;;;;1.52;1.00;;;;;;;6.13;100.00;92758.59;5068921;28;20521;-73
2024/03/07 02:33:06;;;;;;;3.40;1.30;;;;;;;6.10;100.00;92758.19;5068371;28;20055;-73
2024/03/07 02:35:34;;;;;;;4.28;1.42;;;;;;;6.00;100.00;92749.13;5066336;28;20079;-73
2024/03/07 02:38:02;;;;;;;2.40;1.30;;;;;;;6.00;100.00;92744.03;5066532;28;20055;-73
2024/03/07 02:40:30;;;;;;;2.15;1.38;;;;;;;5.87;100.00;92737.13;5066998;28;20406;-73
2024/03/07 02:42:57;;;;;;;2.10;1.40;;;;;;;5.81;100.00;92726.91;5068175;28;20457;-73
2024/03/07 02:45:25;;;;;;;1.77;1.20;;;;;;;5.93;100.00;92755.94;5060425;28;20492;-73
2024/03/07 02:47:53;;;;;;;1.92;1.10;;;;;;;5.91;100.00;92760.47;5065678;28;20048;-73
2024/03/07 02:50:22;;;;;;;1.73;0.95;;;;;;;5.85;100.00;92763.78;5062528;28;20078;-73
2024/03/07 02:52:50;;;;;;;2.88;1.38;;;;;;;5.88;100.00;92759.09;5064392;28;20052;-73
2024/03/07 02:55:18;;;;;;;1.80;1.20;;;;;;;5.84;100.00;92752.78;5068137;28;20048;-74
2024/03/07 02:57:47;;;;;;;2.75;1.20;;;;;;;5.94;100.00;92764.41;5063823;28;20040;-73
2024/03/07 03:00:26;;;;;;;2.70;1.33;;;;;;;6.01;100.00;92760.09;5067941;28;20049;-74
2024/03/07 03:02:54;;;;;;;2.60;1.40;;;;;;;6.04;100.00;92762.31;5065390;28;20056;-74
2024/03/07 03:05:23;;;;;;;1.92;1.17;;;;;;;6.07;100.00;92758.59;5058416;28;20052;-74
2024/03/07 03:07:55;;;;;;;2.58;0.93;;;;;;;6.03;100.00;92742.09;5064418;28;20061;-73
2024/03/07 03:10:25;;;;;;;2.15;1.08;;;;;;;6.24;100.00;92762.34;5064199;28;20513;-74
2024/03/07 03:12:55;;;;;;;1.98;1.23;;;;;;;6.25;100.00;92746.06;5064142;28;20567;-74
2024/03/07 03:18:06;;;;;;;2.50;1.60;;;;;;;6.31;100.00;92759.00;5063547;28;20059;-73
2024/03/07 03:20:34;;;;;;;2.50;1.65;;;;;;;6.44;100.00;92771.00;5063526;28;20613;-74
2024/03/07 03:23:02;;;;;;;3.03;1.50;;;;;;;6.44;100.00;92776.09;5067189;28;20045;-74
2024/03/07 03:25:29;;;;;;;2.95;1.85;;;;;;;6.41;100.00;92767.88;5067835;28;20079;-74
2024/03/07 03:27:58;;;;;;;2.47;1.63;;;;;;;6.45;100.00;92775.91;5063116;28;20048;-74
2024/03/07 03:30:25;;;;;;;2.72;1.45;;;;;;;6.45;100.00;92768.25;5067366;28;20045;-74
2024/03/07 03:32:51;;;;;;;3.40;2.03;;;;;;;6.48;100.00;92762.75;5067788;28;20078;-74
2024/03/07 03:35:19;;;;;;;3.90;2.20;;;;;;;6.50;100.00;92758.25;5059899;28;20048;-74
2024/03/07 03:37:46;;;;;;;3.58;2.45;;;;;;;6.56;100.00;92761.78;5064616;28;20178;-74
2024/03/07 03:40:14;;;;;;;2.75;1.83;;;;;;;6.46;100.00;92758.81;5065507;28;20053;-73
2024/03/07 03:42:42;;;;;;;3.17;2.00;;;;;;;6.34;100.00;92750.97;5064414;28;20391;-73
2024/03/07 03:45:14;;;;;;;3.38;2.10;;;;;;;6.31;100.00;92757.25;5061911;28;20041;-73
2024/03/07 03:47:42;;;;;;;3.35;2.00;;;;;;;6.24;100.00;92741.13;5066716;28;20048;-73
2024/03/07 03:50:11;;;;;;;5.53;2.65;;;;;;;6.29;100.00;92754.09;5067720;28;20048;-73
2024/03/07 03:52:38;;;;;;;4.88;2.40;;;;;;;6.34;100.00;92746.66;5061499;28;20054;-73
2024/03/07 03:55:06;;;;;;;5.82;3.70;;;;;;;6.32;100.00;92751.16;5064380;28;20130;-72
2024/03/07 03:57:34;;;;;;;6.63;3.30;;;;;;;6.35;100.00;92745.66;5065643;28;20052;-72
2024/03/07 04:00:04;;;;;;;4.15;2.97;;;;;;;6.39;100.00;92746.09;5067134;28;20506;-72
2024/03/07 04:02:32;;;;;;;5.18;2.85;;;;;;;6.41;100.00;92747.47;5062657;28;20053;-72
2024/03/07 04:04:59;;;;;;;4.40;3.17;;;;;;;6.41;100.00;92739.81;5066352;28;20504;-72
2024/03/07 04:07:26;;;;;;;4.93;3.85;;;;;;;6.35;100.00;92730.34;5063073;28;20159;-73
2024/03/07 04:09:53;;;;;;;5.00;3.53;;;;;;;6.32;100.00;92737.63;5066539;28;20044;-73
2024/03/07 04:12:21;;;;;;;4.82;3.35;;;;;;;6.30;100.00;92732.72;5059430;28;20045;-74
2024/03/07 04:14:47;;;;;;;5.75;2.90;;;;;;;6.26;100.00;92736.66;5066465;28;20048;-73
2024/03/07 04:17:14;;;;;;;5.85;4.10;;;;;;;6.26;100.00;92731.53;5062253;28;20491;-73
2024/03/07 04:19:44;;;;;;;17.90;7.53;;;;;;;6.28;100.00;92730.38;5055839;28;20502;-73
2024/03/07 04:22:10;;;;;;;14.55;6.85;;;;;;;6.23;100.00;92727.63;5065413;28;20052;-73
2024/03/07 04:24:37;;;;;;;9.25;5.03;;;;;;;6.22;100.00;92725.25;5062333;28;20043;-73
2024/03/07 04:27:05;;;;;;;5.57;3.10;;;;;;;6.24;100.00;92741.13;5064034;28;20399;-73
2024/03/07 04:29:33;;;;;;;6.15;3.60;;;;;;;6.23;100.00;92734.47;5062022;28;20061;-73
2024/03/07 04:32:01;;;;;;;7.63;4.32;;;;;;;6.21;100.00;92734.66;5064349;28;20915;-73
2024/03/07 04:34:28;;;;;;;9.23;6.68;;;;;;;6.30;100.00;92744.69;5052734;28;20127;-73
2024/03/07 04:36:58;;;;;;;5.75;3.35;;;;;;;6.34;100.00;92736.44;5061499;28;20052;-73
2024/03/07 04:39:29;;;;;;;6.65;4.28;;;;;;;6.32;100.00;92732.50;5066700;28;20143;-73
2024/03/07 04:41:56;;;;;;;7.90;5.03;;;;;;;6.34;100.00;92739.00;5064759;28;20270;-73
2024/03/07 04:44:24;;;;;;;7.30;5.63;;;;;;;6.31;100.00;92741.16;5063631;28;20133;-73
2024/03/07 04:46:55;;;;;;;10.93;6.63;;;;;;;6.26;100.00;92742.50;5063301;28;20107;-73
2024/03/07 04:49:23;;;;;;;11.13;6.20;;;;;;;6.28;100.00;92739.78;5062589;28;20048;-73
2024/03/07 04:51:50;;;;;;;10.52;6.40;;;;;;;6.27;100.00;92748.41;5058412;28;20595;-73
2024/03/07 04:54:18;;;;;;;9.30;5.80;;;;;;;6.34;100.00;92743.31;5066600;28;20041;-73
2024/03/07 04:56:45;;;;;;;9.18;4.75;;;;;;;6.36;100.00;92752.34;5066670;28;20087;-72
2024/03/07 04:59:12;;;;;;;9.75;5.20;;;;;;;6.40;100.00;92747.66;5062347;28;20045;-74
2024/03/07 05:01:40;;;;;;;6.13;4.15;;;;;;;6.39;100.00;92748.63;5065852;28;20460;-73
2024/03/07 05:04:07;;;;;;;7.70;4.40;;;;;;;6.34;100.00;92751.75;5064335;28;20094;-73
2024/03/07 05:06:34;;;;;;;10.40;5.30;;;;;;;6.32;100.00;92746.06;5063787;28;20047;-73
2024/03/07 05:09:02;;;;;;;12.45;7.35;;;;;;;6.38;100.00;92747.84;5065539;28;20409;-73
2024/03/07 05:11:31;;;;;;;12.02;7.45;;;;;;;6.40;100.00;92748.41;5062221;28;20045;-73
2024/03/07 05:13:59;;;;;;;13.93;7.90;;;;;;;6.34;100.00;92749.19;5063033;28;20490;-73
2024/03/07 05:16:26;;;;;;;11.73;7.82;;;;;;;6.37;100.00;92756.47;5060966;28;20567;-73
2024/03/07 05:18:53;;;;;;;16.58;8.02;;;;;;;6.42;100.00;92758.44;5063834;28;20052;-74
2024/03/07 05:21:38;;;;;;;12.48;8.50;;;;;;;6.51;100.00;92756.47;5062397;28;20048;-73
2024/03/07 05:24:09;;;;;;;9.07;6.93;;;;;;;6.23;100.00;92712.31;5064852;28;20565;-73
2024/03/07 05:26:39;;;;;;;8.88;7.53;;;;;;;6.44;100.00;92753.94;5063528;28;20494;-73
2024/03/07 05:29:07;;;;;;;9.60;7.22;;;;;;;6.52;100.00;92748.63;5070177;28;20070;-73
2024/03/07 05:31:35;;;;;;;9.70;7.78;;;;;;;6.48;100.00;92731.38;5065524;28;20049;-73
2024/03/07 05:34:03;;;;;;;11.90;7.68;;;;;;;6.69;100.00;92758.44;5057049;28;20126;-73
2024/03/07 05:36:31;;;;;;;13.07;8.70;;;;;;;6.79;100.00;92770.81;5056141;28;20441;-73
2024/03/07 05:38:59;;;;;;;24.45;13.85;;;;;;;6.87;100.00;92764.72;5063792;28;20047;-73
2024/03/07 05:41:29;;;;;;;33.45;20.15;;;;;;;6.93;100.00;92772.38;5065299;28;20125;-73
2024/03/07 05:43:57;;;;;;;25.35;16.25;;;;;;;6.95;100.00;92775.53;5068546;28;20577;-73
2024/03/07 05:46:24;;;;;;;20.92;12.80;;;;;;;7.00;100.00;92776.69;5068234;28;20048;-73
2024/03/07 05:48:55;;;;;;;15.35;9.68;;;;;;;7.04;100.00;92777.88;5068391;28;20489;-73
2024/03/07 05:51:22;;;;;;;18.83;11.85;;;;;;;7.08;100.00;92782.38;5063706;28;20044;-73
2024/03/07 05:53:49;;;;;;;19.58;10.52;;;;;;;7.12;100.00;92787.88;5066535;28;20080;-73
2024/03/07 05:56:16;;;;;;;18.55;11.20;;;;;;;7.16;100.00;92786.50;5059302;28;20047;-73
2024/03/07 05:58:43;;;;;;;13.05;7.60;;;;;;;7.21;100.00;92788.44;5053101;28;20491;-73
2024/03/07 06:01:12;;;;;;;11.73;6.85;;;;;;;7.11;100.00;92796.53;5052701;28;20077;-73
2024/03/07 06:03:40;;;;;;;15.73;7.82;;;;;;;7.15;100.00;92790.06;5054141;28;20084;-73
2024/03/07 06:06:11;;;;;;;11.93;7.20;;;;;;;7.20;100.00;92786.88;5055001;28;20041;-74
2024/03/07 06:08:41;;;;;;;17.67;8.13;;;;;;;7.29;100.00;92793.38;5065569;28;20494;-73
2024/03/07 06:11:09;;;;;;;14.85;8.10;;;;;;;7.35;100.00;92789.22;5062457;28;20055;-73
2024/03/07 06:13:36;;;;;;;15.43;7.60;;;;;;;7.42;100.00;92796.88;5055856;28;20123;-74
2024/03/07 06:16:07;;;;;;;15.45;8.55;;;;;;;7.48;100.00;92803.75;5065386;28;20059;-73
2024/03/07 06:18:35;;;;;;;11.68;8.13;;;;;;;7.56;100.00;92807.84;5055427;28;20070;-73
2024/03/07 06:21:04;;;;;;;16.77;9.15;;;;;;;7.60;100.00;92812.34;5053658;28;20056;-74
2024/03/07 06:23:32;;;;;;;18.05;9.10;;;;;;;7.62;100.00;92807.84;5053281;28;20422;-73
2024/03/07 06:26:00;;;;;;;16.17;7.80;;;;;;;7.66;100.00;92807.44;5051738;28;20500;-73
2024/03/07 06:28:28;;;;;;;14.52;8.32;;;;;;;7.70;100.00;92808.59;5055901;28;20144;-73
2024/03/07 06:30:56;;;;;;;16.63;8.90;;;;;;;7.75;100.00;92806.22;5050876;28;20060;-73
2024/03/07 06:33:23;;;;;;;17.45;9.75;;;;;;;7.82;100.00;92798.53;5055790;28;20044;-73
2024/03/07 06:35:51;;;;;;;15.45;9.48;;;;;;;7.83;100.00;92807.78;5053183;28;20055;-74
2024/03/07 06:38:18;;;;;;;20.85;11.95;;;;;;;7.88;100.00;92808.72;5048683;28;20049;-73
2024/03/07 06:40:45;;;;;;;18.38;13.25;;;;;;;7.78;100.00;92793.03;5051468;28;20065;-74
2024/03/07 06:43:12;;;;;;;18.27;10.40;;;;;;;7.89;100.00;92802.66;5055269;28;20092;-73
2024/03/07 06:45:41;;;;;;;12.60;8.00;;;;;;;7.85;100.00;92798.13;5056288;28;20490;-73
2024/03/07 06:48:09;;;;;;;13.32;7.78;;;;;;;7.94;100.00;92796.91;5052064;28;20525;-73
2024/03/07 06:50:36;;;;;;;16.83;9.85;;;;;;;7.92;100.00;92780.97;5059310;28;20056;-73
2024/03/07 06:53:07;;;;;;;11.93;7.53;;;;;;;7.94;100.00;92778.22;5058568;28;20040;-73
2024/03/07 06:55:35;;;;;;;11.68;7.47;;;;;;;7.90;100.00;92780.41;5054044;28;20070;-74
2024/03/07 06:58:04;;;;;;;13.32;7.28;;;;;;;7.98;100.00;92777.63;5050529;28;20045;-73
2024/03/07 07:00:35;;;;;;;13.63;6.25;;;;;;;8.05;100.00;92769.91;5062028;28;20040;-73
2024/03/07 07:03:04;;;;;;;8.23;4.13;;;;;;;7.78;100.00;92770.00;5055392;28;20052;-73
2024/03/07 07:05:31;;;;;;;5.25;3.20;;;;;;;7.74;100.00;92767.09;5059389;28;20048;-73
2024/03/07 07:07:59;;;;;;;5.32;2.40;;;;;;;7.72;100.00;92781.06;5052091;28;20045;-73
2024/03/07 07:10:27;;;;;;;4.47;2.50;;;;;;;7.53;100.00;92760.47;5054008;28;20053;-73
2024/03/07 07:12:54;;;;;;;8.32;4.28;;;;;;;7.74;100.00;92787.53;5055197;28;20056;-73
2024/03/07 07:15:22;;;;;;;4.70;2.92;;;;;;;7.69;100.00;92787.34;5059081;28;20410;-73
2024/03/07 07:17:49;;;;;;;5.38;3.00;;;;;;;7.55;100.00;92789.16;5053318;28;20071;-73
2024/03/07 07:20:17;;;;;;;5.95;3.38;;;;;;;7.66;100.00;92771.63;5055869;28;20044;-73
2024/03/07 07:22:47;;;;;;;4.22;2.97;;;;;;;7.71;100.00;92771.81;5051328;28;20045;-73
2024/03/07 07:25:14;;;;;;;3.50;2.50;;;;;;;7.71;100.00;92761.59;5054417;28;20105;-73
2024/03/07 07:27:47;;;;;;;3.45;2.15;;;;;;;7.88;100.00;92769.59;5048620;28;20055;-73
2024/03/07 07:30:15;;;;;;;6.53;2.78;;;;;;;7.97;100.00;92770.16;5051465;28;20060;-73
2024/03/07 07:32:43;;;;;;;20.00;11.68;;;;;;;8.06;100.00;92776.56;5052102;28;20750;-73
2024/03/07 07:49:31;;;;;;;9.82;6.53;;;;;;;9.49;100.00;92793.28;5086331;27;20390;-72
2024/03/07 07:51:58;;;;;;;7.97;4.70;;;;;;;9.44;100.00;92797.50;5090457;28;20393;-72
2024/03/07 07:54:25;;;;;;;10.40;4.20;;;;;;;9.33;100.00;92802.31;5085568;28;20056;-71
2024/03/07 07:56:52;;;;;;;5.45;3.70;;;;;;;9.14;100.00;92772.53;5088455;28;20050;-72
2024/03/07 07:59:19;;;;;;;9.15;4.28;;;;;;;9.56;100.00;92803.47;5088145;28;20051;-72
2024/03/07 08:01:46;;;;;;;6.45;3.83;;;;;;;9.74;100.00;92805.28;5087110;28;20048;-72
2024/03/07 08:04:13;;;;;;;12.93;6.13;;;;;;;9.94;100.00;92811.16;5091241;28;20092;-72
2024/03/07 08:06:41;;;;;;;6.25;3.78;;;;;;;10.14;100.00;92806.56;5095528;28;20048;-72
2024/03/07 08:09:10;;;;;;;8.27;2.90;;;;;;;10.25;100.00;92827.38;5087799;28;20518;-71
2024/03/07 08:11:38;;;;;;;6.00;2.75;;;;;;;10.38;99.75;92824.63;5094092;28;20051;-72
2024/03/07 08:14:06;;;;;;;9.02;4.47;;;;;;;10.49;97.89;92833.44;5091970;28;20044;-72
2024/03/07 08:16:33;;;;;;;4.82;2.72;;;;;;;10.57;96.17;92837.47;5087047;28;20044;-73
2024/03/07 08:19:00;;;;;;;7.40;4.00;;;;;;;10.45;95.30;92840.00;5091119;28;20518;-72
2024/03/07 08:21:27;;;;;;;5.60;3.30;;;;;;;10.51;94.21;92841.69;5084889;28;20044;-73
2024/03/07 08:23:55;;;;;;;8.13;3.70;;;;;;;10.52;97.07;92845.81;5088941;28;20050;-74
2024/03/07 08:26:22;;;;;;;10.60;6.53;;;;;;;10.51;93.49;92851.94;5083770;28;20049;-74
2024/03/07 08:28:49;;;;;;;6.15;3.20;;;;;;;10.46;93.18;92853.63;5089120;28;20040;-74
2024/03/07 08:31:16;;;;;;;4.30;2.10;;;;;;;10.38;93.20;92852.88;5089893;28;20048;-74
2024/03/07 08:33:46;;;;;;;4.20;2.28;;;;;;;10.14;92.47;92862.28;5089161;28;20519;-74
2024/03/07 08:36:22;;;;;;;3.13;1.90;;;;;;;9.95;93.80;92861.50;5083764;28;20055;-74
2024/03/07 08:38:51;;;;;;;6.18;2.25;;;;;;;10.01;92.08;92869.09;5087135;28;20110;-74
2024/03/07 08:41:20;;;;;;;5.20;2.08;;;;;;;9.96;93.00;92868.94;5091356;28;20123;-74
2024/03/07 08:43:47;;;;;;;3.72;2.10;;;;;;;9.91;93.60;92873.97;5086156;28;20394;-74
2024/03/07 08:46:13;;;;;;;6.20;2.53;;;;;;;9.88;93.42;92872.59;5088101;28;20049;-74
2024/03/07 08:48:40;;;;;;;4.88;3.03;;;;;;;9.75;94.68;92854.78;5081372;28;20050;-74
2024/03/07 08:51:07;;;;;;;2.88;1.50;;;;;;;9.91;93.60;92875.75;5072229;28;20060;-75
2024/03/07 08:53:36;;;;;;;3.05;1.90;;;;;;;9.88;95.00;92880.31;5071238;28;20479;-74
2024/03/07 08:56:03;;;;;;;6.43;2.25;;;;;;;9.75;93.16;92877.84;5071098;28;20044;-74
2024/03/07 08:58:31;;;;;;;4.90;2.70;;;;;;;9.81;93.68;92873.66;5074066;28;20098;-74
2024/03/07 09:00:58;;;;;;;3.75;1.80;;;;;;;9.60;92.61;92868.75;5071341;28;20041;-73
2024/03/07 09:03:25;;;;;;;5.03;2.40;;;;;;;9.64;95.07;92863.97;5070662;28;20044;-75
2024/03/07 09:05:54;;;;;;;4.95;2.63;;;;;;;9.54;95.67;92861.88;5070604;28;20408;-74
2024/03/07 09:08:20;;;;;;;4.75;2.90;;;;;;;9.36;97.86;92868.53;5075811;28;20048;-74
2024/03/07 09:10:47;;;;;;;3.45;1.42;;;;;;;9.29;99.10;92867.81;5070981;28;20096;-76
2024/03/07 09:13:14;;;;;;;3.88;1.33;;;;;;;9.16;100.00;92853.31;5074833;28;20052;-75
2024/03/07 09:15:43;;;;;;;3.88;1.85;;;;;;;9.31;100.00;92867.59;5082768;28;20044;-75
2024/03/07 09:18:10;;;;;;;5.60;1.90;;;;;;;9.43;100.00;92867.69;5070157;28;20059;-75
2024/03/07 09:20:37;;;;;;;2.17;0.98;;;;;;;9.25;97.03;92878.69;5072555;28;20049;-75
2024/03/07 09:23:05;;;;;;;2.47;1.10;;;;;;;9.30;97.10;92879.63;5072857;28;20056;-75
2024/03/07 09:25:34;;;;;;;3.83;0.93;;;;;;;9.08;96.70;92856.91;5073417;28;20395;-75
2024/03/07 09:28:01;;;;;;;1.90;1.02;;;;;;;9.16;97.61;92878.19;5071889;28;20057;-75
2024/03/07 09:30:28;;;;;;;2.20;1.00;;;;;;;9.23;97.38;92874.53;5070708;28;20078;-75
2024/03/07 09:32:56;;;;;;;2.45;0.80;;;;;;;9.31;96.89;92870.94;5070962;28;20044;-75
2024/03/07 09:35:23;;;;;;;2.55;0.95;;;;;;;9.38;98.16;92870.09;5074866;28;20050;-75
2024/03/07 09:37:50;;;;;;;2.70;1.38;;;;;;;9.40;97.56;92870.69;5069743;28;20048;-75
2024/03/07 09:40:18;;;;;;;2.47;1.02;;;;;;;9.45;97.19;92871.59;5071241;28;20583;-75
2024/03/07 09:42:47;;;;;;;2.50;1.08;;;;;;;9.51;95.95;92866.63;5073498;28;20214;-75
2024/03/07 09:45:19;;;;;;;2.55;1.30;;;;;;;9.66;96.70;92872.22;5073821;28;20126;-75
2024/03/07 09:47:49;;;;;;;3.58;1.17;;;;;;;9.84;96.51;92865.53;5069822;28;20598;-74
2024/03/07 09:50:21;;;;;;;2.38;0.90;;;;;;;9.95;95.85;92867.38;5074905;28;20130;-75
2024/03/07 09:52:50;;;;;;;2.15;1.20;;;;;;;9.98;94.50;92866.97;5071317;28;20501;-74
2024/03/07 09:55:19;;;;;;;6.03;1.23;;;;;;;10.09;93.06;92869.81;5069634;28;20542;-73
2024/03/07 09:57:47;;;;;;;4.20;1.10;;;;;;;10.14;94.32;92868.16;5075514;28;20055;-74
2024/03/07 10:00:23;;;;;;;5.03;1.30;;;;;;;10.35;92.58;92867.94;5069857;28;20058;-74
2024/03/07 10:02:54;;;;;;;;;;;;;;;10.45;92.71;92863.09;5072601;28;20043;-74
2024/03/07 10:05:25;;;;;;;4.40;2.30;;;;;;;10.49;91.42;92855.75;5068237;28;19920;-74
2024/03/07 10:07:53;;;;;;;4.82;1.30;;;;;;;10.18;89.73;92840.28;5076059;28;20056;-74
2024/03/07 10:24:07;;;;;;;6.63;1.55;;;;;;;11.13;88.21;92834.69;5139957;27;20393;-72
2024/03/07 10:26:35;;;;;;;2.63;1.20;;;;;;;10.88;90.05;92840.78;5129429;27;20075;-73
2024/03/07 10:29:03;;;;;;;4.75;2.33;;;;;;;10.93;91.00;92835.00;5120574;27;20130;-73
2024/03/07 10:31:30;;;;;;;5.68;1.40;;;;;;;10.47;89.26;92811.53;5121913;27;20043;-74
2024/03/07 10:34:01;;;;;;;6.40;3.70;;;;;;;10.72;87.92;92837.06;5129020;27;20050;-75
2024/03/07 10:36:30;;;;;;;6.60;2.80;;;;;;;10.49;89.09;92812.09;5125148;27;20583;-73
2024/03/07 10:39:00;;;;;;;3.83;1.52;;;;;;;10.53;88.03;92834.56;5134866;27;20096;-75
2024/03/07 10:41:30;;;;;;;11.48;2.30;;;;;;;10.49;89.40;92840.34;5122654;27;20105;-75
2024/03/07 10:43:59;;;;;;;4.47;1.88;;;;;;;10.47;88.86;92816.66;5118620;27;20047;-75
2024/03/07 10:46:27;;;;;;;11.07;3.53;;;;;;;10.38;89.53;92818.72;5125337;27;20043;-75
2024/03/07 10:48:56;;;;;;;48.60;22.73;;;;;;;10.56;88.28;92834.09;5133876;27;20505;-75
2024/03/07 10:51:28;;;;;;;7.28;2.95;;;;;;;10.32;87.66;92802.41;5117174;27;20055;-75
2024/03/07 10:54:09;;;;;;;7.00;2.35;;;;;;;10.65;88.40;92826.88;5122988;27;20062;-75
2024/03/07 10:56:49;;;;;;;4.63;1.60;;;;;;;10.62;85.82;92832.47;5122690;27;20039;-76
2024/03/07 10:59:19;;;;;;;5.40;1.90;;;;;;;10.53;86.27;92833.75;5126025;27;20508;-75
2024/03/07 11:01:54;;;;;;;4.90;2.13;;;;;;;10.55;84.84;92821.47;5124696;27;20048;-75
2024/03/07 11:04:24;;;;;;;5.60;1.70;;;;;;;10.73;85.10;92830.16;5124844;27;20054;-75
2024/03/07 11:06:51;;;;;;;12.35;2.45;;;;;;;10.82;84.37;92819.34;5123011;27;20181;-74
2024/03/07 11:09:28;;;;;;;28.23;11.63;;;;;;;10.89;85.15;92810.75;5133034;27;20049;-75
2024/03/07 11:11:56;;;;;;;6.65;2.25;;;;;;;10.90;83.21;92812.31;5133934;27;20055;-75
2024/03/07 11:14:25;;;;;;;5.07;1.83;;;;;;;10.91;84.54;92809.50;5125980;27;20473;-75
2024/03/07 11:16:52;;;;;;;14.48;5.68;;;;;;;11.03;83.57;92814.69;5128655;27;20126;-74
2024/03/07 11:19:21;;;;;;;112.15;44.03;;;;;;;11.03;82.76;92811.31;5126937;27;20051;-74
2024/03/07 11:21:48;;;;;;;21.88;9.02;;;;;;;10.98;81.61;92806.84;5128030;27;20146;-74
2024/03/07 11:24:28;;;;;;;30.55;13.48;;;;;;;11.04;82.00;92792.31;5118031;27;20043;-75
2024/03/07 11:26:56;;;;;;;34.08;14.05;;;;;;;11.17;82.76;92806.75;5118943;27;20092;-73
2024/03/07 11:29:44;;;;;;;49.95;20.35;;;;;;;11.15;81.72;92791.53;5105118;27;20066;-75
2024/03/07 11:32:13;;;;;;;72.57;27.88;;;;;;;11.25;81.02;92806.41;5108331;27;20054;-75
2024/03/07 11:34:42;;;;;;;218.98;83.78;;;;;;;11.34;79.66;92799.16;5127269;27;20134;-74
2024/03/07 11:37:17;;;;;;;142.18;53.58;;;;;;;11.42;78.34;92798.00;5108746;27;21527;-74
2024/03/07 11:39:47;;;;;;;26.13;9.57;;;;;;;11.50;78.96;92802.84;5112102;27;20075;-75
2024/03/07 11:42:25;;;;;;;24.98;9.60;;;;;;;11.43;79.10;92794.47;5119951;27;20043;-75
2024/03/07 11:44:55;;;;;;;18.42;7.28;;;;;;;11.39;77.77;92803.63;5117442;27;20073;-74
2024/03/07 11:47:24;;;;;;;28.42;11.18;;;;;;;11.40;77.42;92792.31;5109852;27;20046;-74
2024/03/07 11:49:52;;;;;;;169.68;60.67;;;;;;;11.48;79.14;92795.34;5120145;27;20934;-74
2024/03/07 11:52:19;;;;;;;29.83;11.77;;;;;;;11.45;76.26;92795.81;5108283;27;20662;-74
2024/03/07 11:54:47;;;;;;;34.67;11.55;;;;;;;11.52;76.94;92792.31;5110757;27;20051;-75
2024/03/07 11:57:19;;;;;;;4.05;1.63;;;;;;;11.53;72.27;92799.03;5115154;27;20589;-74
2024/03/07 11:59:52;;;;;;;43.97;18.17;;;;;;;11.62;73.98;92795.88;5110499;27;20050;-74
2024/03/07 12:02:27;;;;;;;38.47;16.17;;;;;;;11.39;73.26;92747.81;5121055;27;20081;-75
2024/03/07 12:04:54;;;;;;;13.88;6.13;;;;;;;11.58;73.73;92788.84;5111071;27;20126;-75